SKW877 KATY-KDEN
Flight info
| Callsign | SKW877 |
|---|---|
| Flight time | N/A |
| Altitude | 36000 |
| Route | NYTRO AALLE4 |
| Aircraft | CRJ7/M-SDFGIRWY/S |
Departure
| Time | 2026-04-26 17:57 |
|---|---|
| Airport | Watertown Regional Airport (KATY) |
Arrival
| Time | N/A |
|---|---|
| Airport | Denver International Airport (KDEN) |
| Time | Latitude | Longitude | Altitude | Speed | Heading |
|---|---|---|---|---|---|
| 2026-04-26 17:44 | 44.92053 | -97.16077 | 1751 ft | 0 kts | 129° |
| 2026-04-26 17:50 | 44.92053 | -97.16076 | 1751 ft | 1 kts | 129° |
| 2026-04-26 17:50 | 44.92047 | -97.16067 | 1744 ft | 1 kts | 144° |
| 2026-04-26 17:50 | 44.92032 | -97.16062 | 1742 ft | 4 kts | 171° |
| 2026-04-26 17:50 | 44.91993 | -97.16054 | 1748 ft | 7 kts | 165° |
| 2026-04-26 17:51 | 44.91945 | -97.15998 | 1746 ft | 11 kts | 125° |
| 2026-04-26 17:51 | 44.91892 | -97.15891 | 1749 ft | 15 kts | 125° |
| 2026-04-26 17:51 | 44.91824 | -97.15754 | 1745 ft | 19 kts | 124° |
| 2026-04-26 17:51 | 44.91747 | -97.15596 | 1741 ft | 20 kts | 124° |
| 2026-04-26 17:52 | 44.91669 | -97.15437 | 1747 ft | 20 kts | 124° |
| 2026-04-26 17:52 | 44.91595 | -97.15293 | 1746 ft | 14 kts | 139° |
| 2026-04-26 17:52 | 44.91506 | -97.15269 | 1746 ft | 14 kts | 180° |
| 2026-04-26 17:52 | 44.91405 | -97.15266 | 1738 ft | 16 kts | 178° |
| 2026-04-26 17:53 | 44.91293 | -97.15266 | 1744 ft | 16 kts | 180° |
| 2026-04-26 17:53 | 44.91177 | -97.15266 | 1741 ft | 17 kts | 180° |
| 2026-04-26 17:53 | 44.91055 | -97.15266 | 1745 ft | 17 kts | 180° |
| 2026-04-26 17:54 | 44.90810 | -97.15267 | 1747 ft | 18 kts | 181° |
| 2026-04-26 17:54 | 44.90686 | -97.15268 | 1740 ft | 18 kts | 180° |
| 2026-04-26 17:54 | 44.90561 | -97.15270 | 1743 ft | 19 kts | 180° |
| 2026-04-26 17:54 | 44.90428 | -97.15271 | 1749 ft | 19 kts | 180° |
| 2026-04-26 17:55 | 44.90293 | -97.15272 | 1744 ft | 19 kts | 180° |
| 2026-04-26 17:55 | 44.90186 | -97.15251 | 1746 ft | 12 kts | 136° |
| 2026-04-26 17:55 | 44.90176 | -97.15185 | 1745 ft | 8 kts | 70° |
| 2026-04-26 17:55 | 44.90226 | -97.15121 | 1743 ft | 12 kts | 5° |
| 2026-04-26 17:56 | 44.90443 | -97.15117 | 1749 ft | 61 kts | 2° |
| 2026-04-26 17:56 | 44.92107 | -97.15081 | 1839 ft | 161 kts | 5° |
| 2026-04-26 17:57 | 44.94382 | -97.15521 | 3212 ft | 183 kts | 330° |
| 2026-04-26 17:57 | 44.95074 | -97.17058 | 3708 ft | 200 kts | 282° |
| 2026-04-26 17:57 | 44.94831 | -97.19062 | 3798 ft | 224 kts | 234° |
| 2026-04-26 17:57 | 44.93640 | -97.20534 | 3956 ft | 238 kts | 195° |
| 2026-04-26 17:58 | 44.89467 | -97.21909 | 5241 ft | 267 kts | 198° |
| 2026-04-26 17:59 | 44.86205 | -97.24510 | 6885 ft | 271 kts | 215° |
| 2026-04-26 17:59 | 44.84811 | -97.26281 | 7792 ft | 269 kts | 223° |
| 2026-04-26 17:59 | 44.83574 | -97.28249 | 8645 ft | 267 kts | 229° |
| 2026-04-26 17:59 | 44.82447 | -97.30339 | 9468 ft | 268 kts | 232° |
| 2026-04-26 18:00 | 44.81380 | -97.32503 | 10223 ft | 270 kts | 233° |
| 2026-04-26 18:00 | 44.80321 | -97.34696 | 10898 ft | 271 kts | 233° |
| 2026-04-26 18:00 | 44.79278 | -97.36876 | 11561 ft | 273 kts | 233° |
| 2026-04-26 18:00 | 44.78198 | -97.39086 | 12244 ft | 275 kts | 232° |
| 2026-04-26 18:01 | 44.77098 | -97.41292 | 12923 ft | 276 kts | 232° |
| 2026-04-26 18:01 | 44.75986 | -97.43510 | 13575 ft | 278 kts | 232° |
| 2026-04-26 18:01 | 44.74857 | -97.45753 | 14034 ft | 288 kts | 232° |
| 2026-04-26 18:01 | 44.73663 | -97.48122 | 14245 ft | 304 kts | 232° |
| 2026-04-26 18:02 | 44.72430 | -97.50564 | 14755 ft | 308 kts | 233° |
| 2026-04-26 18:02 | 44.72010 | -97.51395 | 14948 ft | 309 kts | 233° |
| 2026-04-26 18:02 | 44.69925 | -97.55518 | 15870 ft | 314 kts | 233° |
| 2026-04-26 18:02 | 44.68652 | -97.58032 | 16417 ft | 317 kts | 233° |
| 2026-04-26 18:03 | 44.67367 | -97.60564 | 16966 ft | 320 kts | 233° |
| 2026-04-26 18:03 | 44.66070 | -97.63120 | 17493 ft | 323 kts | 233° |
| 2026-04-26 18:03 | 44.64761 | -97.65700 | 18013 ft | 326 kts | 233° |
| 2026-04-26 18:03 | 44.63440 | -97.68300 | 18508 ft | 329 kts | 234° |
| 2026-04-26 18:04 | 44.62109 | -97.70919 | 18981 ft | 330 kts | 234° |
| 2026-04-26 18:04 | 44.60771 | -97.73543 | 19470 ft | 331 kts | 234° |
| 2026-04-26 18:04 | 44.59429 | -97.76176 | 19949 ft | 332 kts | 234° |
| 2026-04-26 18:05 | 44.57183 | -97.80569 | 20713 ft | 335 kts | 234° |
| 2026-04-26 18:05 | 44.55819 | -97.83227 | 21158 ft | 336 kts | 235° |
| 2026-04-26 18:05 | 44.54453 | -97.85899 | 21587 ft | 338 kts | 235° |
| 2026-04-26 18:05 | 44.53081 | -97.88581 | 22016 ft | 339 kts | 235° |
| 2026-04-26 18:06 | 44.51702 | -97.91277 | 22430 ft | 341 kts | 235° |
| 2026-04-26 18:06 | 44.50316 | -97.93980 | 22836 ft | 342 kts | 235° |
| 2026-04-26 18:06 | 44.48922 | -97.96692 | 23226 ft | 344 kts | 235° |
| 2026-04-26 18:06 | 44.47522 | -97.99418 | 23606 ft | 346 kts | 235° |
| 2026-04-26 18:07 | 44.46115 | -98.02157 | 23937 ft | 347 kts | 235° |
| 2026-04-26 18:07 | 44.44723 | -98.04864 | 24266 ft | 347 kts | 235° |
| 2026-04-26 18:07 | 44.43310 | -98.07611 | 24578 ft | 348 kts | 235° |
| 2026-04-26 18:07 | 44.42349 | -98.09471 | 24790 ft | 349 kts | 235° |
| 2026-04-26 18:08 | 44.40468 | -98.13121 | 25200 ft | 350 kts | 235° |
| 2026-04-26 18:08 | 44.39041 | -98.15881 | 25506 ft | 351 kts | 234° |
| 2026-04-26 18:08 | 44.37610 | -98.18653 | 25806 ft | 352 kts | 234° |
| 2026-04-26 18:08 | 44.36175 | -98.21425 | 26085 ft | 353 kts | 234° |
| 2026-04-26 18:09 | 44.34736 | -98.24203 | 26366 ft | 353 kts | 234° |
| 2026-04-26 18:09 | 44.33293 | -98.26990 | 26630 ft | 354 kts | 234° |
| 2026-04-26 18:09 | 44.31845 | -98.29782 | 26908 ft | 355 kts | 234° |
| 2026-04-26 18:09 | 44.30392 | -98.32574 | 27199 ft | 356 kts | 234° |
| 2026-04-26 18:10 | 44.28936 | -98.35379 | 27466 ft | 357 kts | 234° |
| 2026-04-26 18:10 | 44.27473 | -98.38191 | 27722 ft | 358 kts | 233° |
| 2026-04-26 18:10 | 44.26008 | -98.41007 | 27970 ft | 359 kts | 233° |
| 2026-04-26 18:10 | 44.24539 | -98.43825 | 28206 ft | 360 kts | 233° |
| 2026-04-26 18:11 | 44.23061 | -98.46650 | 28432 ft | 361 kts | 233° |
| 2026-04-26 18:11 | 44.21583 | -98.49484 | 28655 ft | 362 kts | 233° |
| 2026-04-26 18:11 | 44.20097 | -98.52326 | 28863 ft | 363 kts | 233° |
| 2026-04-26 18:11 | 44.18624 | -98.55139 | 29070 ft | 364 kts | 233° |
| 2026-04-26 18:12 | 44.17130 | -98.57990 | 29272 ft | 365 kts | 233° |
| 2026-04-26 18:12 | 44.15631 | -98.60850 | 29472 ft | 366 kts | 233° |
| 2026-04-26 18:12 | 44.14106 | -98.63754 | 29680 ft | 367 kts | 232° |
| 2026-04-26 18:12 | 44.12616 | -98.66591 | 29871 ft | 368 kts | 232° |
| 2026-04-26 18:13 | 44.11102 | -98.69470 | 30076 ft | 369 kts | 232° |
| 2026-04-26 18:13 | 44.09582 | -98.72357 | 30243 ft | 371 kts | 232° |
| 2026-04-26 18:13 | 44.08072 | -98.75232 | 30681 ft | 363 kts | 232° |
| 2026-04-26 18:13 | 44.07074 | -98.77125 | 31074 ft | 356 kts | 232° |
| 2026-04-26 18:14 | 44.05158 | -98.80751 | 31618 ft | 349 kts | 232° |
| 2026-04-26 18:14 | 44.03722 | -98.83472 | 31808 ft | 349 kts | 232° |
| 2026-04-26 18:14 | 44.02284 | -98.86190 | 31980 ft | 348 kts | 232° |
| 2026-04-26 18:14 | 44.00851 | -98.88896 | 32200 ft | 346 kts | 232° |
| 2026-04-26 18:15 | 43.99431 | -98.91576 | 32447 ft | 344 kts | 232° |
| 2026-04-26 18:15 | 43.98014 | -98.94245 | 32710 ft | 343 kts | 232° |
| 2026-04-26 18:15 | 43.96602 | -98.96904 | 32975 ft | 342 kts | 232° |
| 2026-04-26 18:15 | 43.95191 | -98.99548 | 33233 ft | 340 kts | 232° |
| 2026-04-26 18:16 | 43.93775 | -99.02166 | 33502 ft | 338 kts | 232° |
| 2026-04-26 18:16 | 43.90995 | -99.07381 | 34032 ft | 333 kts | 232° |
| 2026-04-26 18:16 | 43.89623 | -99.09957 | 34263 ft | 331 kts | 232° |
| 2026-04-26 18:17 | 43.88277 | -99.12473 | 34487 ft | 328 kts | 232° |
| 2026-04-26 18:17 | 43.86928 | -99.15000 | 34711 ft | 324 kts | 233° |
| 2026-04-26 18:17 | 43.85591 | -99.17498 | 34941 ft | 321 kts | 233° |
| 2026-04-26 18:17 | 43.84269 | -99.19968 | 35183 ft | 317 kts | 233° |
| 2026-04-26 18:18 | 43.82962 | -99.22406 | 35420 ft | 313 kts | 233° |
| 2026-04-26 18:18 | 43.81674 | -99.24809 | 35652 ft | 309 kts | 233° |
| 2026-04-26 18:18 | 43.80398 | -99.27183 | 35855 ft | 306 kts | 233° |
| 2026-04-26 18:18 | 43.79131 | -99.29544 | 35945 ft | 306 kts | 233° |
| 2026-04-26 18:19 | 43.76584 | -99.34279 | 36005 ft | 308 kts | 233° |
| 2026-04-26 18:19 | 43.73999 | -99.39077 | 36038 ft | 313 kts | 233° |
| 2026-04-26 18:20 | 43.71371 | -99.43952 | 36034 ft | 319 kts | 233° |
| 2026-04-26 18:20 | 43.69144 | -99.48072 | 36032 ft | 324 kts | 233° |
| 2026-04-26 18:21 | 43.65959 | -99.53957 | 36037 ft | 331 kts | 233° |
| 2026-04-26 18:21 | 43.63173 | -99.59092 | 36024 ft | 337 kts | 233° |
| 2026-04-26 18:22 | 43.60335 | -99.64320 | 36016 ft | 343 kts | 233° |
| 2026-04-26 18:22 | 43.57460 | -99.69602 | 36006 ft | 350 kts | 233° |
| 2026-04-26 18:23 | 43.54508 | -99.75014 | 35999 ft | 356 kts | 232° |
| 2026-04-26 18:23 | 43.51501 | -99.80520 | 35997 ft | 363 kts | 232° |
| 2026-04-26 18:24 | 43.48435 | -99.86122 | 35998 ft | 369 kts | 232° |
| 2026-04-26 18:24 | 43.45321 | -99.91824 | 36007 ft | 376 kts | 232° |
| 2026-04-26 18:25 | 43.42140 | -99.97621 | 36009 ft | 383 kts | 232° |
| 2026-04-26 18:25 | 43.38897 | -100.03515 | 36007 ft | 390 kts | 232° |
| 2026-04-26 18:26 | 43.35592 | -100.09507 | 36009 ft | 396 kts | 232° |
| 2026-04-26 18:26 | 43.32231 | -100.15586 | 36012 ft | 403 kts | 232° |
| 2026-04-26 18:27 | 43.28812 | -100.21755 | 36006 ft | 409 kts | 232° |
| 2026-04-26 18:27 | 43.25356 | -100.27986 | 35996 ft | 411 kts | 232° |
| 2026-04-26 18:28 | 43.21903 | -100.34194 | 35997 ft | 413 kts | 232° |
| 2026-04-26 18:28 | 43.18406 | -100.40468 | 35979 ft | 415 kts | 232° |
| 2026-04-26 18:29 | 43.14895 | -100.46751 | 35968 ft | 416 kts | 232° |
| 2026-04-26 18:29 | 43.11371 | -100.53048 | 35960 ft | 417 kts | 232° |
| 2026-04-26 18:30 | 43.07834 | -100.59352 | 35954 ft | 418 kts | 232° |
| 2026-04-26 18:30 | 43.04284 | -100.65668 | 35950 ft | 419 kts | 232° |
| 2026-04-26 18:31 | 43.00723 | -100.71983 | 35950 ft | 420 kts | 232° |
| 2026-04-26 18:31 | 42.97154 | -100.78312 | 35950 ft | 421 kts | 232° |
| 2026-04-26 18:32 | 42.93596 | -100.84597 | 35952 ft | 422 kts | 232° |
| 2026-04-26 18:32 | 42.90005 | -100.90932 | 35956 ft | 422 kts | 232° |
| 2026-04-26 18:33 | 42.86405 | -100.97268 | 35965 ft | 423 kts | 231° |
| 2026-04-26 18:33 | 42.84597 | -101.00445 | 35772 ft | 428 kts | 231° |
| 2026-04-26 18:33 | 42.82749 | -101.03686 | 35291 ft | 439 kts | 231° |
| 2026-04-26 18:34 | 42.80859 | -101.07003 | 34813 ft | 447 kts | 231° |
| 2026-04-26 18:34 | 42.78969 | -101.10315 | 34324 ft | 435 kts | 231° |
| 2026-04-26 18:34 | 42.77136 | -101.13521 | 33855 ft | 424 kts | 231° |
| 2026-04-26 18:34 | 42.75313 | -101.16703 | 33306 ft | 430 kts | 231° |
| 2026-04-26 18:35 | 42.73486 | -101.19896 | 32781 ft | 436 kts | 231° |
| 2026-04-26 18:35 | 42.71607 | -101.23172 | 32265 ft | 441 kts | 231° |
| 2026-04-26 18:35 | 42.69709 | -101.26478 | 31745 ft | 446 kts | 231° |
| 2026-04-26 18:35 | 42.67796 | -101.29805 | 31518 ft | 442 kts | 231° |
| 2026-04-26 18:36 | 42.65928 | -101.33051 | 32039 ft | 432 kts | 231° |
| 2026-04-26 18:36 | 42.64091 | -101.36236 | 32557 ft | 424 kts | 231° |
| 2026-04-26 18:36 | 42.62294 | -101.39356 | 33086 ft | 416 kts | 231° |
| 2026-04-26 18:36 | 42.60524 | -101.42420 | 33618 ft | 408 kts | 230° |
| 2026-04-26 18:37 | 42.58792 | -101.45420 | 34129 ft | 399 kts | 231° |
| 2026-04-26 18:37 | 42.57095 | -101.48353 | 34584 ft | 391 kts | 231° |
| 2026-04-26 18:37 | 42.55435 | -101.51222 | 35052 ft | 382 kts | 231° |
| 2026-04-26 18:37 | 42.53812 | -101.54022 | 35507 ft | 374 kts | 231° |
| 2026-04-26 18:38 | 42.52205 | -101.56770 | 35745 ft | 371 kts | 231° |
| 2026-04-26 18:38 | 42.50616 | -101.59467 | 35852 ft | 372 kts | 231° |
| 2026-04-26 18:38 | 42.47380 | -101.64978 | 35934 ft | 376 kts | 231° |
| 2026-04-26 18:39 | 42.44118 | -101.70601 | 35958 ft | 383 kts | 231° |
| 2026-04-26 18:39 | 42.40791 | -101.76307 | 35967 ft | 390 kts | 231° |
| 2026-04-26 18:40 | 42.37396 | -101.82108 | 35964 ft | 396 kts | 231° |
| 2026-04-26 18:40 | 42.33947 | -101.87996 | 35955 ft | 403 kts | 231° |
| 2026-04-26 18:41 | 42.30444 | -101.93962 | 35955 ft | 407 kts | 231° |
| 2026-04-26 18:41 | 42.26918 | -101.99959 | 35945 ft | 408 kts | 231° |
| 2026-04-26 18:42 | 42.23376 | -102.05968 | 35936 ft | 410 kts | 231° |
| 2026-04-26 18:42 | 42.19819 | -102.11989 | 35940 ft | 411 kts | 231° |
| 2026-04-26 18:43 | 42.16245 | -102.18030 | 35929 ft | 413 kts | 231° |
| 2026-04-26 18:43 | 42.12655 | -102.24084 | 35929 ft | 414 kts | 231° |
| 2026-04-26 18:44 | 42.09053 | -102.30146 | 35920 ft | 415 kts | 231° |
| 2026-04-26 18:44 | 42.05434 | -102.36226 | 35910 ft | 417 kts | 231° |
| 2026-04-26 18:45 | 42.01827 | -102.42272 | 35902 ft | 418 kts | 231° |
| 2026-04-26 18:45 | 41.98185 | -102.48365 | 35893 ft | 418 kts | 231° |
| 2026-04-26 18:46 | 41.94534 | -102.54461 | 35888 ft | 419 kts | 231° |
| 2026-04-26 18:46 | 41.90871 | -102.60564 | 35883 ft | 420 kts | 231° |
| 2026-04-26 18:47 | 41.87200 | -102.66667 | 35883 ft | 420 kts | 231° |
| 2026-04-26 18:47 | 41.83522 | -102.72771 | 35880 ft | 421 kts | 231° |
| 2026-04-26 18:48 | 41.79836 | -102.78875 | 35880 ft | 421 kts | 231° |
| 2026-04-26 18:48 | 41.76147 | -102.84973 | 35879 ft | 421 kts | 231° |
| 2026-04-26 18:49 | 41.72450 | -102.91069 | 35880 ft | 421 kts | 231° |
| 2026-04-26 18:49 | 41.68748 | -102.97162 | 35883 ft | 422 kts | 231° |
| 2026-04-26 18:50 | 41.65064 | -103.03201 | 35878 ft | 422 kts | 229° |
| 2026-04-26 18:50 | 41.62903 | -103.05841 | 35879 ft | 423 kts | 216° |
| 2026-04-26 18:50 | 41.60294 | -103.07679 | 35885 ft | 426 kts | 205° |
| 2026-04-26 18:51 | 41.54790 | -103.10647 | 35861 ft | 427 kts | 204° |
| 2026-04-26 18:51 | 41.49258 | -103.13548 | 35851 ft | 427 kts | 204° |
| 2026-04-26 18:52 | 41.43669 | -103.16278 | 35847 ft | 429 kts | 199° |
| 2026-04-26 18:52 | 41.40712 | -103.16951 | 35859 ft | 436 kts | 186° |
| 2026-04-26 18:52 | 41.37664 | -103.16792 | 35859 ft | 439 kts | 180° |
| 2026-04-26 18:53 | 41.31550 | -103.16360 | 35630 ft | 443 kts | 184° |
| 2026-04-26 18:53 | 41.28443 | -103.16394 | 35273 ft | 450 kts | 185° |
| 2026-04-26 18:53 | 41.25293 | -103.16552 | 34918 ft | 456 kts | 186° |
| 2026-04-26 18:54 | 41.22141 | -103.16717 | 34571 ft | 463 kts | 186° |
| 2026-04-26 18:54 | 41.18907 | -103.16875 | 34222 ft | 467 kts | 185° |
| 2026-04-26 18:54 | 41.15640 | -103.17024 | 33868 ft | 471 kts | 185° |
| 2026-04-26 18:54 | 41.12361 | -103.17173 | 33447 ft | 472 kts | 187° |
| 2026-04-26 18:55 | 41.09151 | -103.17963 | 33035 ft | 468 kts | 199° |
| 2026-04-26 18:55 | 41.06123 | -103.19538 | 32634 ft | 468 kts | 204° |
| 2026-04-26 18:55 | 41.03194 | -103.21171 | 32238 ft | 446 kts | 205° |
| 2026-04-26 18:55 | 41.00382 | -103.22774 | 31853 ft | 435 kts | 205° |
| 2026-04-26 18:56 | 40.97643 | -103.24378 | 31477 ft | 427 kts | 205° |
| 2026-04-26 18:56 | 40.94974 | -103.26032 | 31110 ft | 419 kts | 209° |
| 2026-04-26 18:56 | 40.92581 | -103.28168 | 30764 ft | 412 kts | 218° |
| 2026-04-26 18:56 | 40.90378 | -103.30566 | 30425 ft | 408 kts | 219° |
| 2026-04-26 18:57 | 40.88216 | -103.32948 | 30222 ft | 400 kts | 219° |
| 2026-04-26 18:57 | 40.87489 | -103.33727 | 30220 ft | 396 kts | 218° |
| 2026-04-26 18:57 | 40.81754 | -103.39501 | 30202 ft | 386 kts | 217° |
| 2026-04-26 18:58 | 40.79609 | -103.41646 | 29993 ft | 390 kts | 217° |
| 2026-04-26 18:58 | 40.77420 | -103.43813 | 29620 ft | 397 kts | 217° |
| 2026-04-26 18:58 | 40.75198 | -103.46025 | 29226 ft | 403 kts | 217° |
| 2026-04-26 18:58 | 40.72940 | -103.48271 | 28835 ft | 410 kts | 217° |
| 2026-04-26 18:59 | 40.71425 | -103.49778 | 28576 ft | 414 kts | 217° |
| 2026-04-26 18:59 | 40.69110 | -103.52082 | 28199 ft | 420 kts | 217° |
| 2026-04-26 18:59 | 40.66768 | -103.54411 | 27809 ft | 425 kts | 217° |
| 2026-04-26 18:59 | 40.64388 | -103.56773 | 27422 ft | 430 kts | 217° |
| 2026-04-26 19:00 | 40.61980 | -103.59149 | 27036 ft | 435 kts | 217° |
| 2026-04-26 19:00 | 40.59544 | -103.61540 | 26646 ft | 439 kts | 217° |
| 2026-04-26 19:00 | 40.57093 | -103.63971 | 26259 ft | 443 kts | 217° |
| 2026-04-26 19:00 | 40.54625 | -103.66441 | 25879 ft | 447 kts | 217° |
| 2026-04-26 19:01 | 40.52147 | -103.68925 | 25505 ft | 447 kts | 217° |
| 2026-04-26 19:01 | 40.49735 | -103.71335 | 25140 ft | 425 kts | 217° |
| 2026-04-26 19:01 | 40.47441 | -103.73638 | 24786 ft | 407 kts | 219° |
| 2026-04-26 19:01 | 40.45542 | -103.76280 | 24478 ft | 390 kts | 231° |
| 2026-04-26 19:02 | 40.44217 | -103.79276 | 24399 ft | 374 kts | 250° |
| 2026-04-26 19:02 | 40.43869 | -103.82601 | 24137 ft | 366 kts | 263° |
| 2026-04-26 19:02 | 40.43266 | -103.85745 | 23760 ft | 350 kts | 239° |
| 2026-04-26 19:02 | 40.42318 | -103.87415 | 23538 ft | 343 kts | 225° |
| 2026-04-26 19:03 | 40.39980 | -103.90225 | 22998 ft | 349 kts | 221° |
| 2026-04-26 19:03 | 40.38168 | -103.92220 | 22589 ft | 338 kts | 220° |
| 2026-04-26 19:03 | 40.36377 | -103.94133 | 22172 ft | 326 kts | 219° |
| 2026-04-26 19:03 | 40.34685 | -103.95930 | 21784 ft | 317 kts | 219° |
| 2026-04-26 19:04 | 40.32968 | -103.97734 | 21371 ft | 316 kts | 219° |
| 2026-04-26 19:04 | 40.31254 | -103.99524 | 20955 ft | 315 kts | 219° |
| 2026-04-26 19:04 | 40.29542 | -104.01303 | 20556 ft | 314 kts | 219° |
| 2026-04-26 19:04 | 40.27834 | -104.03072 | 20163 ft | 313 kts | 219° |
| 2026-04-26 19:05 | 40.25041 | -104.05956 | 19533 ft | 313 kts | 219° |
| 2026-04-26 19:05 | 40.23330 | -104.07716 | 19155 ft | 313 kts | 219° |
| 2026-04-26 19:05 | 40.21618 | -104.09471 | 18779 ft | 313 kts | 219° |
| 2026-04-26 19:06 | 40.19903 | -104.11224 | 18405 ft | 313 kts | 219° |
| 2026-04-26 19:06 | 40.18185 | -104.12973 | 18036 ft | 313 kts | 219° |
| 2026-04-26 19:06 | 40.16464 | -104.14721 | 17611 ft | 314 kts | 219° |
| 2026-04-26 19:06 | 40.14740 | -104.16470 | 17234 ft | 313 kts | 219° |